Pagina principale
METAR-TAF:

METAR-TAF

Aeroporti :

Aeroporto di Atene-Eleftherios Venizelos

Atene, Grecia

latitudine: 37-56N, longitudine: 023-56E, altezza: 94 m

Osservazione

Il bollettino è stato emesso 39 minuti fa, alle 23:50 UTC
Vento 3 kt da ovest/nord-ovest
Temperature 2°C
Umidità 80%
Pressione 1024 hPa
Visibilità 10 km o più
Poco nuvoloso ad un'altezza di 3000 ft

METAR: LGAV 222350Z 30003KT 9999 FEW030 02/M01 Q1024 NOSIG

Ora: 02:29 (00:29 UTC)

Previsione

Il bollettino è stato emesso 1 ora e 29 minuti fa, alle 23:00 UTC
Previsione valida dal 23 alle 00 UTC al 23 alle 24 UTC
Vento 10 kt da ovest
Visibilità 10 km o più
Poco nuvoloso ad un'altezza di 2500 ft
Evoluzione graduale
dal 23 alle 08 UTC al 23 alle 10 UTC
Vento 17 kt da nord/nord-est
Temporaneamente
dal 23 alle 11 UTC al 23 alle 16 UTC
Vento 20 kt da nord/nord-est con raffiche fino a 30 kt

TAF: LGAV 222300Z 2300/2324 28010KT 9999 FEW025 BECMG 2308/2310 02017KT TEMPO 2311/2316 02020G30KT

Osservazioni e previsioni meteorologiche di più di 4000 aeroporti (messaggi METAR e TAF).

Le stazioni disponibili sono rappresentate dai dischi gialli e rossi sulla carta.

Puntare il mouse per vedere il nome della stazione.

Clicca sopra per visualizzare le osservazioni e previsioni meteorologiche.

Per cambiare la mappa : fare clic sui pulsanti verdi con una croce nera per ingrandire, il pulsante verde con un trattino per diminuire, o sulla freccia verde per le mappe adiacenti.


METAR-TAF: